LEZG/ZAZ METAR and TAF weather

Enter ICAO airport designator
Station Type Date Time Source
LEZG METAR 2020/11/27 03:30 UTC NOAA

LEZG 270330Z 00000KT 7000 FEW040 BKN080 11/11 Q1014


Station Type Date Time Source
LEZG Decoded METAR 2020/11/27 03:30 UTC NOAA

Zaragoza / Aeropuerto, Spain (LEZG) 41-40N 001-01W 258M
Nov 26, 2020 - 10:30 PM EST / 2020.11.27 0330 UTC
Wind: Calm:0
Visibility: 4 mile(s):0
Sky conditions: mostly cloudy
Temperature: 51 F (11 C)
Dew Point: 51 F (11 C)
Relative Humidity: 100%
Pressure (altimeter): 29.94 in. Hg (1014 hPa)
ob: LEZG 270330Z 00000KT 7000 FEW040 BKN080 11/11 Q1014
cycle: 3

Station Type Date Time Source
LEZG TAF 2020/11/26 18:27 UTC NOAA

TAF TAF LEZG 261700Z 2618/2718 11008KT 9999 BKN020 TX14/2713Z TN10/2706Z PROB40
TEMPO 2618/2708 2500 RA BR BKN008 PROB30
TEMPO 2700/2708 3000 TSRA BKN014 FEW015CB

Example: see airport list